Terminal Aerodrome Forecast
Issued by NWS

Home | Current Version | Previous Version | Text Only | Print | Product List | Glossary On
Versions: 1 2 3 4 5 6 7 8 9 10 11 12 13
000
FTUS43 KLSX 110538
TAFCPS
TAF
KCPS 110538Z 1106/1206 16012G19KT P6SM OVC050
     FM111800 18014G21KT P6SM -RA OVC030
     FM112100 19014G21KT 5SM -RA OVC020
     FM120000 20009KT P6SM OVC010=

USA.gov is the U.S. government's official web portal to all federal, state and local government web resources and services.